createdAt,value
2019-04-30T00:01:48.570Z,5.24
2019-04-30T00:04:15.900Z,5.23
2019-04-30T00:06:45.384Z,5.18
2019-04-30T00:09:18.917Z,5.20
2019-04-30T00:11:46.099Z,5.19
2019-04-30T00:14:15.244Z,5.22
2019-04-30T00:16:45.128Z,5.26
2019-04-30T00:19:15.756Z,5.29
2019-04-30T00:21:50.097Z,5.28
2019-04-30T00:24:15.748Z,5.29
2019-04-30T00:26:44.993Z,5.32
2019-04-30T00:29:19.158Z,5.34
2019-04-30T00:31:44.672Z,5.37
2019-04-30T00:34:15.172Z,5.35
2019-04-30T00:36:43.542Z,5.33
2019-04-30T00:39:13.215Z,5.33
2019-04-30T00:41:45.940Z,5.33
2019-04-30T00:44:11.570Z,5.35
2019-04-30T00:46:40.054Z,5.36
2019-04-30T00:49:11.187Z,5.35
2019-04-30T00:51:38.164Z,5.34
2019-04-30T00:54:06.360Z,5.34
2019-04-30T00:56:35.546Z,5.35
2019-04-30T00:59:08.236Z,5.32
2019-04-30T01:01:39.056Z,5.34
2019-04-30T01:04:09.935Z,5.34
2019-04-30T01:06:38.110Z,5.34
2019-04-30T01:09:08.629Z,5.37
2019-04-30T01:11:39.783Z,5.34
2019-04-30T01:14:06.666Z,5.36
2019-04-30T01:16:34.852Z,5.37
2019-04-30T01:19:05.661Z,5.37
2019-04-30T01:21:32.946Z,5.38
2019-04-30T01:24:01.142Z,5.39
2019-04-30T01:26:31.027Z,5.40
2019-04-30T01:29:02.068Z,5.39
2019-04-30T01:31:36.938Z,5.39
2019-04-30T01:34:00.261Z,5.37
2019-04-30T01:36:29.374Z,5.37
2019-04-30T01:38:59.294Z,5.39
2019-04-30T01:41:31.315Z,5.40
2019-04-30T01:43:58.485Z,5.41
2019-04-30T01:46:26.799Z,5.43
2019-04-30T01:48:55.001Z,5.44
2019-04-30T01:51:23.522Z,5.45
2019-04-30T01:53:51.749Z,5.44
2019-04-30T01:56:21.913Z,5.42
2019-04-30T01:58:51.738Z,5.40
2019-04-30T02:01:24.098Z,5.39
2019-04-30T02:03:52.581Z,5.34
2019-04-30T02:06:20.778Z,5.37
2019-04-30T02:08:49.369Z,5.37
2019-04-30T02:11:18.978Z,5.39
2019-04-30T02:13:49.194Z,5.38
2019-04-30T02:16:18.755Z,5.40
2019-04-30T02:18:49.459Z,5.39
2019-04-30T02:21:19.524Z,5.38
2019-04-30T02:23:49.303Z,5.39
2019-04-30T02:26:18.774Z,5.42
2019-04-30T02:28:49.386Z,5.39
2019-04-30T02:31:22.327Z,5.39
2019-04-30T02:33:50.293Z,5.38
2019-04-30T02:36:32.311Z,5.37
2019-04-30T02:39:02.632Z,5.37
2019-04-30T02:41:31.041Z,5.37
2019-04-30T02:43:59.810Z,5.40
2019-04-30T02:46:31.997Z,5.40
2019-04-30T02:48:59.799Z,5.43
2019-04-30T02:51:29.954Z,5.43
2019-04-30T02:54:12.930Z,5.41
2019-04-30T02:56:42.767Z,5.43
2019-04-30T02:59:11.208Z,5.44
2019-04-30T03:01:40.248Z,5.46
2019-04-30T03:04:09.860Z,5.49
2019-04-30T03:06:40.188Z,5.46
2019-04-30T03:09:10.344Z,5.43
2019-04-30T03:11:40.586Z,5.46
2019-04-30T03:14:10.245Z,5.47
2019-04-30T03:16:43.470Z,5.45
2019-04-30T03:19:25.280Z,5.46
2019-04-30T03:22:00.170Z,5.45
2019-04-30T03:24:29.534Z,5.46
2019-04-30T03:26:59.457Z,5.44
2019-04-30T03:29:30.257Z,5.44
2019-04-30T03:32:02.066Z,5.47
2019-04-30T03:34:31.829Z,5.47
2019-04-30T03:37:01.685Z,5.45
2019-04-30T03:39:29.733Z,5.46
2019-04-30T03:41:59.676Z,5.40
2019-04-30T03:44:31.563Z,5.38
2019-04-30T03:46:59.310Z,5.38
2019-04-30T03:49:29.840Z,5.38
2019-04-30T03:51:59.806Z,5.39
2019-04-30T03:54:29.251Z,5.37
2019-04-30T03:57:00.625Z,5.37
2019-04-30T03:59:30.106Z,5.38
2019-04-30T04:02:06.233Z,5.38
2019-04-30T04:04:39.666Z,5.41
2019-04-30T04:07:10.209Z,5.43
2019-04-30T04:09:59.824Z,5.41
2019-04-30T04:12:30.253Z,5.35
2019-04-30T04:15:03.266Z,5.33
2019-04-30T04:17:31.293Z,5.34
2019-04-30T04:19:59.866Z,5.36
2019-04-30T04:22:30.602Z,5.35
2019-04-30T04:25:00.054Z,5.32
2019-04-30T04:27:30.077Z,5.24
2019-04-30T04:30:01.095Z,5.17
2019-04-30T04:32:30.885Z,5.12
2019-04-30T04:35:00.170Z,5.13
2019-04-30T04:37:30.105Z,5.12
2019-04-30T04:39:59.561Z,5.11
2019-04-30T04:42:30.003Z,5.10
2019-04-30T04:44:59.486Z,5.10
2019-04-30T04:47:30.871Z,5.12
2019-04-30T04:50:00.653Z,5.13
2019-04-30T04:52:31.616Z,5.14
2019-04-30T04:55:00.451Z,5.14
2019-04-30T04:57:30.508Z,5.12
2019-04-30T05:00:03.489Z,5.11
2019-04-30T05:02:46.328Z,5.12
2019-04-30T05:05:14.508Z,5.11
2019-04-30T05:07:42.746Z,5.07
2019-04-30T05:10:11.889Z,5.08
2019-04-30T05:12:40.412Z,5.07
2019-04-30T05:15:09.546Z,5.09
2019-04-30T05:17:39.765Z,5.08
2019-04-30T05:20:09.994Z,5.05
2019-04-30T05:22:39.021Z,5.05
2019-04-30T05:25:08.802Z,5.08
2019-04-30T05:27:39.077Z,5.12
2019-04-30T05:30:09.729Z,5.07
2019-04-30T05:32:39.086Z,5.08
2019-04-30T05:35:09.562Z,5.12
2019-04-30T05:37:38.470Z,5.16
2019-04-30T05:40:09.117Z,5.18
2019-04-30T05:42:38.518Z,5.26
2019-04-30T05:45:09.370Z,5.23
2019-04-30T05:47:38.874Z,5.28
2019-04-30T05:50:08.977Z,5.29
2019-04-30T05:52:39.501Z,5.31
2019-04-30T05:55:08.566Z,5.27
2019-04-30T05:57:36.983Z,5.32
2019-04-30T06:00:09.308Z,5.37
2019-04-30T06:02:37.145Z,5.44
2019-04-30T06:05:06.276Z,5.50
2019-04-30T06:07:34.760Z,5.54
2019-04-30T06:10:04.885Z,5.55
2019-04-30T06:12:52.821Z,5.55
2019-04-30T06:15:29.108Z,5.59
2019-04-30T06:18:01.801Z,5.65
2019-04-30T06:20:28.783Z,5.71
2019-04-30T06:22:57.134Z,5.72
2019-04-30T06:25:32.393Z,5.72
2019-04-30T06:27:55.311Z,5.73
2019-04-30T06:30:23.946Z,5.76
2019-04-30T06:32:52.125Z,5.79
2019-04-30T06:35:20.621Z,5.80
2019-04-30T06:37:49.106Z,5.81
2019-04-30T06:40:19.631Z,5.76
2019-04-30T06:42:49.338Z,5.74
2019-04-30T06:45:19.173Z,5.71
2019-04-30T06:47:48.937Z,5.71
2019-04-30T06:50:19.211Z,5.69
2019-04-30T06:52:56.215Z,5.68
2019-04-30T06:55:19.109Z,5.63
2019-04-30T06:57:47.040Z,5.64
2019-04-30T07:00:15.239Z,5.58
2019-04-30T07:02:43.423Z,5.60
2019-04-30T07:05:12.035Z,5.59
2019-04-30T07:07:41.897Z,5.54
2019-04-30T07:10:17.008Z,5.54
2019-04-30T07:12:49.162Z,5.61
2019-04-30T07:15:19.529Z,5.67
2019-04-30T07:17:49.155Z,5.76
2019-04-30T07:20:19.147Z,5.83
2019-04-30T07:22:52.543Z,5.89
2019-04-30T07:25:19.519Z,5.96
2019-04-30T07:27:50.565Z,5.95
2019-04-30T07:30:19.224Z,5.96
2019-04-30T07:32:48.769Z,6.03
2019-04-30T07:35:19.442Z,6.17
2019-04-30T07:37:49.522Z,6.12
2019-04-30T07:40:19.047Z,6.09
2019-04-30T07:42:49.309Z,6.32
2019-04-30T07:45:19.426Z,6.40
2019-04-30T07:47:49.507Z,6.45
2019-04-30T07:50:20.797Z,6.53
2019-04-30T07:53:01.979Z,6.44
2019-04-30T07:55:19.583Z,6.44
2019-04-30T07:57:50.557Z,6.39
2019-04-30T08:00:19.413Z,6.30
2019-04-30T08:02:50.453Z,6.29
2019-04-30T08:05:20.427Z,6.35
2019-04-30T08:07:49.102Z,6.20
2019-04-30T08:10:18.765Z,6.18
2019-04-30T08:12:49.990Z,6.25
2019-04-30T08:15:19.193Z,6.21
2019-04-30T08:18:01.661Z,6.25
2019-04-30T08:20:19.491Z,6.30
2019-04-30T08:22:49.396Z,6.37
2019-04-30T08:25:19.933Z,6.47
2019-04-30T08:27:49.268Z,6.57
2019-04-30T08:30:26.045Z,6.70
2019-04-30T08:32:49.983Z,6.77
2019-04-30T08:35:19.705Z,6.90
2019-04-30T08:37:49.659Z,7.02
2019-04-30T08:40:20.959Z,7.05
2019-04-30T08:42:49.690Z,7.13
2019-04-30T08:45:19.698Z,7.22
2019-04-30T08:47:49.354Z,7.27
2019-04-30T08:50:19.595Z,7.23
2019-04-30T08:52:49.752Z,7.17
2019-04-30T08:55:19.747Z,7.17
2019-04-30T08:57:49.859Z,7.22
2019-04-30T09:00:19.539Z,7.28
2019-04-30T09:02:49.187Z,7.41
2019-04-30T09:05:19.439Z,7.32
2019-04-30T09:07:48.676Z,7.38
2019-04-30T09:10:19.254Z,7.47
2019-04-30T09:12:49.616Z,7.41
2019-04-30T09:15:18.836Z,7.36
2019-04-30T09:18:00.308Z,7.47
2019-04-30T09:20:19.303Z,7.52
2019-04-30T09:22:47.325Z,7.64
2019-04-30T09:25:15.961Z,7.55
2019-04-30T09:27:44.134Z,7.54
2019-04-30T09:30:12.311Z,7.70
2019-04-30T09:32:40.494Z,7.85
2019-04-30T09:35:09.562Z,7.89
2019-04-30T09:37:39.414Z,8.02
2019-04-30T09:40:16.131Z,8.05
2019-04-30T09:42:39.078Z,8.15
2019-04-30T09:45:08.806Z,8.24
2019-04-30T09:47:37.047Z,8.27
2019-04-30T09:50:06.248Z,8.44
2019-04-30T09:52:36.112Z,8.42
2019-04-30T09:55:06.188Z,8.38
2019-04-30T09:57:34.683Z,8.40
2019-04-30T10:00:03.979Z,8.49
2019-04-30T10:02:32.438Z,8.43
2019-04-30T10:05:01.026Z,8.49
2019-04-30T10:07:29.811Z,8.53
2019-04-30T10:09:59.090Z,8.55
2019-04-30T10:12:29.414Z,8.48
2019-04-30T10:14:59.255Z,8.42
2019-04-30T10:17:32.235Z,8.46
2019-04-30T10:20:00.411Z,8.47
2019-04-30T10:22:28.597Z,8.45
2019-04-30T10:24:56.780Z,8.41
2019-04-30T10:27:25.684Z,8.39
2019-04-30T10:29:54.131Z,8.34
2019-04-30T10:32:22.313Z,8.34
2019-04-30T10:34:50.793Z,8.43
2019-04-30T10:37:19.275Z,8.39
2019-04-30T10:39:48.994Z,8.43
2019-04-30T10:42:17.430Z,8.36
2019-04-30T10:44:45.610Z,8.32
2019-04-30T10:47:14.426Z,8.38
2019-04-30T10:49:42.616Z,8.33
2019-04-30T10:52:10.794Z,8.35
2019-04-30T10:54:39.109Z,8.30
2019-04-30T10:57:08.690Z,8.35
2019-04-30T10:59:37.167Z,8.43
2019-04-30T11:02:05.431Z,8.47
2019-04-30T11:04:33.902Z,8.55
2019-04-30T11:07:02.085Z,8.56
2019-04-30T11:09:31.172Z,8.55
2019-04-30T11:12:02.697Z,8.58
2019-04-30T11:14:30.118Z,8.63
2019-04-30T11:16:59.892Z,8.70
2019-04-30T14:16:47.228Z,10.69
2019-04-30T14:22:57.581Z,10.55
2019-04-30T14:28:55.015Z,11.59
2019-04-30T14:31:23.202Z,11.76
2019-04-30T14:33:51.379Z,11.83
2019-04-30T14:36:19.571Z,12.12
2019-04-30T14:38:48.856Z,12.21
2019-04-30T14:41:17.808Z,11.90
2019-04-30T14:43:50.489Z,11.70
2019-04-30T14:46:22.561Z,11.90
2019-04-30T14:48:53.550Z,11.75
2019-04-30T14:51:22.453Z,11.68
2019-04-30T14:53:52.270Z,11.53
2019-04-30T14:56:24.817Z,11.49
2019-04-30T14:59:00.144Z,11.45
2019-04-30T15:01:32.615Z,11.14
2019-04-30T15:04:00.788Z,11.14
2019-04-30T15:06:29.279Z,11.48
2019-04-30T15:08:59.133Z,11.62
2019-04-30T15:11:28.874Z,11.44
2019-04-30T15:13:59.062Z,11.52
2019-04-30T15:16:26.981Z,11.59
2019-04-30T15:18:55.165Z,11.51
2019-04-30T15:21:23.658Z,11.97
2019-04-30T15:23:58.599Z,11.97
2019-04-30T15:26:25.126Z,12.26
2019-04-30T15:28:53.600Z,12.83
2019-04-30T15:31:22.081Z,13.02
2019-04-30T15:34:02.268Z,12.47
2019-04-30T15:36:22.109Z,12.53
2019-04-30T15:38:57.679Z,12.35
2019-04-30T15:41:26.146Z,12.05
2019-04-30T15:43:54.729Z,11.96
2019-04-30T15:46:23.626Z,11.96
2019-04-30T15:48:51.814Z,11.94
2019-04-30T15:51:19.994Z,11.77
2019-04-30T15:53:48.585Z,11.75
2019-04-30T15:56:16.761Z,11.80
2019-04-30T15:58:49.318Z,11.70
2019-04-30T16:01:19.176Z,11.85
2019-04-30T16:03:54.443Z,11.88
2019-04-30T16:06:22.945Z,11.88
2019-04-30T16:08:58.402Z,11.77
2019-04-30T16:11:37.258Z,11.52
2019-04-30T16:14:22.797Z,11.63
2019-04-30T16:16:52.617Z,11.57
2019-04-30T16:19:20.807Z,11.63
2019-04-30T16:21:48.985Z,11.55
2019-04-30T16:24:18.729Z,11.62
2019-04-30T16:26:50.611Z,11.46
2019-04-30T16:29:16.965Z,11.60
2019-04-30T16:31:45.444Z,11.48
2019-04-30T16:34:13.929Z,11.49
2019-04-30T16:36:42.414Z,11.44
2019-04-30T16:39:10.621Z,11.41
2019-04-30T16:41:40.747Z,11.33
2019-04-30T16:44:09.184Z,11.30
2019-04-30T16:46:39.481Z,11.20
2019-04-30T16:49:09.985Z,11.16
2019-04-30T16:51:38.594Z,11.03
2019-04-30T16:54:08.646Z,10.94
2019-04-30T16:56:38.656Z,10.71
2019-04-30T16:59:08.685Z,10.58
2019-04-30T17:01:36.860Z,10.48
2019-04-30T17:04:25.624Z,10.48
2019-04-30T17:06:55.759Z,10.47
2019-04-30T17:09:31.038Z,10.27
2019-04-30T17:12:00.857Z,10.22
2019-04-30T17:14:30.805Z,10.21
2019-04-30T17:16:59.823Z,10.23
2019-04-30T17:19:29.231Z,10.12
2019-04-30T17:21:57.518Z,10.06
2019-04-30T17:24:25.955Z,10.04
2019-04-30T17:26:54.446Z,10.04
2019-04-30T17:29:22.639Z,10.03
2019-04-30T17:31:50.816Z,9.96
2019-04-30T17:34:19.274Z,9.93
2019-04-30T17:36:49.449Z,9.89
2019-04-30T17:39:19.009Z,9.90
2019-04-30T17:41:47.553Z,9.92
2019-04-30T17:44:15.735Z,9.88
2019-04-30T17:46:43.907Z,9.83
2019-04-30T17:49:12.093Z,9.80
2019-04-30T17:51:40.276Z,9.80
2019-04-30T17:54:13.475Z,9.73
2019-04-30T17:56:42.601Z,9.71
2019-04-30T17:59:11.264Z,9.69
2019-04-30T18:01:41.095Z,9.64
2019-04-30T18:04:09.267Z,9.64
2019-04-30T18:06:37.453Z,9.60
2019-04-30T18:09:10.745Z,9.58
2019-04-30T18:11:39.619Z,9.53
2019-04-30T18:14:08.824Z,9.47
2019-04-30T18:16:38.687Z,9.38
2019-04-30T18:19:11.599Z,9.31
2019-04-30T18:21:48.578Z,9.28
2019-04-30T18:24:19.529Z,9.22
2019-04-30T18:27:01.628Z,9.16
2019-04-30T18:29:29.798Z,9.09
2019-04-30T18:31:59.843Z,9.03
2019-04-30T18:34:29.204Z,9.00
2019-04-30T18:36:59.327Z,8.96
2019-04-30T18:39:28.885Z,8.95
2019-04-30T18:41:57.288Z,8.91
2019-04-30T18:44:25.461Z,8.88
2019-04-30T18:46:53.987Z,8.83
2019-04-30T18:49:22.174Z,8.80
2019-04-30T18:51:50.355Z,8.75
2019-04-30T18:54:20.896Z,8.70
2019-04-30T18:56:49.005Z,8.66
2019-04-30T18:59:19.509Z,8.62
2019-04-30T19:01:47.437Z,8.57
2019-04-30T19:04:15.615Z,8.53
2019-04-30T19:06:43.801Z,8.49
2019-04-30T19:09:19.674Z,8.46
2019-04-30T19:11:52.817Z,8.47
2019-04-30T19:14:25.478Z,8.44
2019-04-30T19:17:01.038Z,8.43
2019-04-30T19:19:43.367Z,8.41
2019-04-30T19:22:11.552Z,8.38
2019-04-30T19:24:52.714Z,8.35
2019-04-30T19:27:09.641Z,8.33
2019-04-30T19:29:38.125Z,8.29
2019-04-30T19:32:06.322Z,8.29
2019-04-30T19:34:34.875Z,8.25
2019-04-30T19:37:03.482Z,8.23
2019-04-30T19:39:32.497Z,8.21
2019-04-30T19:42:01.018Z,8.19
2019-04-30T19:44:29.834Z,8.16
2019-04-30T19:46:58.591Z,8.16
2019-04-30T19:49:26.801Z,8.12
2019-04-30T19:52:07.597Z,8.12
2019-04-30T19:54:24.886Z,8.07
2019-04-30T19:56:53.292Z,8.05
2019-04-30T19:59:21.840Z,8.03
2019-04-30T20:01:50.195Z,7.99
2019-04-30T20:04:18.648Z,7.93
2019-04-30T20:06:48.763Z,7.86
2019-04-30T20:09:19.278Z,7.75
2019-04-30T20:11:49.307Z,7.68
2019-04-30T20:14:18.677Z,7.57
2019-04-30T20:16:48.667Z,7.49
2019-04-30T20:19:16.946Z,7.41
2019-04-30T20:21:50.740Z,7.33
2019-04-30T20:24:15.368Z,7.22
2019-04-30T20:26:43.544Z,7.12
2019-04-30T20:29:12.020Z,6.97
2019-04-30T20:31:40.499Z,6.85
2019-04-30T20:34:09.254Z,6.68
2019-04-30T20:36:38.885Z,6.56
2019-04-30T20:39:09.109Z,6.48
2019-04-30T20:41:37.281Z,6.37
2019-04-30T20:44:05.464Z,6.21
2019-04-30T20:46:35.325Z,6.09
2019-04-30T20:49:03.867Z,5.92
2019-04-30T20:51:32.040Z,5.78
2019-04-30T20:54:00.220Z,5.66
2019-04-30T20:56:29.170Z,5.54
2019-04-30T20:59:02.347Z,5.43
2019-04-30T21:01:29.419Z,5.37
2019-04-30T21:03:57.342Z,5.28
2019-04-30T21:06:25.752Z,5.17
2019-04-30T21:08:53.941Z,5.04
2019-04-30T21:11:22.459Z,4.95
2019-04-30T21:13:50.936Z,4.86
2019-04-30T21:16:19.421Z,4.77
2019-04-30T21:18:47.897Z,4.68
2019-04-30T21:21:18.610Z,4.60
2019-04-30T21:23:46.813Z,4.54
2019-04-30T21:26:14.993Z,4.43
2019-04-30T21:28:43.177Z,4.37
2019-04-30T21:31:31.104Z,4.30
2019-04-30T21:34:09.704Z,4.22
2019-04-30T21:36:39.555Z,4.15
2019-04-30T21:39:09.051Z,3.99
2019-04-30T21:41:39.448Z,3.84
2019-04-30T21:44:07.233Z,3.78
2019-04-30T21:46:37.102Z,3.74
2019-04-30T21:49:05.636Z,3.73
2019-04-30T21:51:33.811Z,3.73
2019-04-30T21:54:02.005Z,3.72
2019-04-30T21:56:30.458Z,3.71
2019-04-30T21:58:58.935Z,3.68
2019-04-30T22:01:27.107Z,3.67
2019-04-30T22:03:55.590Z,3.63
2019-04-30T22:06:23.769Z,3.54
2019-04-30T22:08:51.952Z,3.41
2019-04-30T22:11:20.121Z,3.39
2019-04-30T22:13:49.416Z,3.37
2019-04-30T22:16:20.072Z,3.36
2019-04-30T22:18:48.020Z,3.36
2019-04-30T22:21:16.205Z,3.32
2019-04-30T22:23:44.377Z,3.30
2019-04-30T22:26:12.698Z,3.32
2019-04-30T22:28:41.248Z,3.37
2019-04-30T22:31:09.536Z,3.41
2019-04-30T22:33:39.206Z,3.41
2019-04-30T22:36:10.924Z,3.40
2019-04-30T22:38:40.810Z,3.41
2019-04-30T22:41:08.995Z,3.46
2019-04-30T22:43:37.167Z,3.52
2019-04-30T22:46:06.994Z,3.49
2019-04-30T22:48:35.434Z,3.48
2019-04-30T22:51:03.622Z,3.49
2019-04-30T22:53:31.797Z,3.53
2019-04-30T22:56:00.268Z,3.55
2019-04-30T22:58:28.748Z,3.57
2019-04-30T23:01:01.530Z,3.57
2019-04-30T23:03:31.361Z,3.57
2019-04-30T23:05:59.529Z,3.63
2019-04-30T23:08:27.700Z,3.67
2019-04-30T23:10:56.177Z,3.70
2019-04-30T23:13:24.351Z,3.74
2019-04-30T23:15:54.450Z,3.78
2019-04-30T23:18:22.624Z,3.82
2019-04-30T23:20:51.178Z,3.86
2019-04-30T23:23:19.353Z,3.90
2019-04-30T23:25:47.540Z,3.93
2019-04-30T23:28:15.710Z,3.95
2019-04-30T23:30:43.919Z,3.96
2019-04-30T23:33:12.408Z,3.97
2019-04-30T23:35:40.591Z,4.01
2019-04-30T23:38:08.767Z,4.03
2019-04-30T23:40:51.094Z,4.05
2019-04-30T23:43:19.751Z,4.08
2019-04-30T23:45:48.094Z,4.11
2019-04-30T23:48:16.273Z,4.16
2019-04-30T23:50:44.445Z,4.22
2019-04-30T23:53:12.629Z,4.28
2019-04-30T23:55:40.803Z,4.36
2019-04-30T23:58:08.985Z,4.38
